AirNav   TITAN Aviation Fuels
 
 661 users online  

6Y2 Candlelight Heliport
New Milford, Connecticut, USA

GOING TO NEW MILFORD?


FAA INFORMATION EFFECTIVE 14 JULY 2022

Location

FAA Identifier: 6Y2
Lat/Long: 41-34-04.3390N 073-27-38.4410W
41-34.072317N 073-27.640683W
41.5678719,-73.4606781
(estimated)
Elevation: 675 ft. / 206 m (estimated)
Variation: 14W (1990)
From city: 2 miles W of NEW MILFORD, CT
Time zone: UTC -4 (UTC -5 during Standard Time)
Zip code: 06776

Heliport Operations

Heliport use: Open to the public
Activation date: 09/1991
Control tower: no
ARTCC: NEW YORK CENTER
FSS: BRIDGEPORT FLIGHT SERVICE STATION
NOTAMs facility: BDR (NOTAM-D service available)
Attendance: UNATNDD
Wind indicator: yes
Segmented circle: no
Landing fee: yes

Heliport Communications

CTAF: 122.9
WX ASOS at DXR (12 nm S): 127.75 (203-791-8227)
WX AWOS-3PT at OXC (16 nm E): 132.975 (203-262-1190)
WX ASOS at POU (19 nm W): 126.75 (845-462-0648)

Nearby radio navigation aids

VOR radial/distance  VOR name  Freq  Var
PWLr165/13.6PAWLING VOR/DME114.3012W
IGNr122/17.2KINGSTON VOR/DME117.6012W
CMKr029/18.1CARMEL VOR/DME116.6012W
BDRr340/28.7BRIDGEPORT VOR/DME108.8012W
MADr307/37.8MADISON VOR/DME110.4013W

 
NDB name  Hdg/Dist  Freq  Var  ID
STANWYCK097/26.326112WSKU ... -.- ..-

Heliport Services

Runway Information

Helipad H1

Dimensions: 50 x 50 ft. / 15 x 15 m
Surface: asphalt, in fair condition
Operational restrictions: PAVEMENT AREA MEASURES 30 FT BY 30 FT.
Traffic pattern: leftleft

Heliport Ownership and Management from official FAA records

Ownership: Privately-owned
Owner: CARL DUNHAM JR
CANDLEWOOD MOUNTAIN RD
NEW MILFORD, CT 06776
Phone (203) 648-6782
Manager: CARL DUNHAM JR
CANDLEWOOD MOUNTAIN RD
NEW MILFORD, CT 06776
Phone (203) 648-6782

Heliport Operational Statistics

Aircraft operations: 60/year *
67% local general aviation
33% transient general aviation
* for 12-month period ending 31 October 2020

Additional Remarks

A52-H1 28 FT BLDG 135 FT EAST OF PAD.
HELIPORT CLSD EXCP PPR CALL 203-648-6782
FOR CD CTC NEW YORK APCH AT 516-683-2849
LANDING FEE $50.00 PER LANDING

Instrument Procedures

There are no published instrument procedures at 6Y2.

Some nearby airports with instrument procedures:

KDXR - Danbury Municipal Airport (12 nm S)
44N - Sky Acres Airport (15 nm NW)
KOXC - Waterbury-Oxford Airport (16 nm E)
KPOU - Hudson Valley Regional Airport (19 nm W)
4B8 - Robertson Field Airport (28 nm E)
 
Loc | Ops | Rwys | IFR | FBO | Links
Com | Nav | Svcs | Stats | Notes

Silver City Flying Club
 
Area around 6Y2 (Candlelight Heliport)
 
Road maps at: MapQuest Bing Google
 
Aerial photo
No photo
 
Sectional chart

 
Airport distance calculator
Flying to Candlelight Heliport? Find the distance to fly.

From to 6Y2

Sunrise and sunset
Times for 11-Aug-2022
 Local
(UTC-4)
 Zulu
(UTC)
Morning civil twilight05:2909:29
Sunrise05:5909:59
Sunset19:5923:59
Evening civil twilight20:2900:29

Current date and time
Zulu (UTC)  11-Aug-2022 05:36:16
Local (UTC-4)  11-Aug-2022 01:36:16
 
METAR
KDXR 
12nm S 
110453Z AUTO 36003KT 10SM OVC065 23/20 A3000 RMK AO2 SLP155 T02330200 403060222
KOXC 
17nm E 
110451Z AUTO 00000KT 10SM BKN007 21/21 A3002 RMK AO2 SLP171 T02110206 402830211
KPOU 
19nm W 
110453Z AUTO 00000KT 10SM BKN070 21/16 A2998 RMK AO2 SLP147 T02060161 403110206
TAF
KPOU 
19nm W 
101723Z 1018/1118 36005KT P6SM SCT045 BKN060 FM102100 34004KT P6SM SCT045 SCT200 FM110200 00000KT P6SM SCT150 BKN200 FM111200 32004KT P6SM SCT100 BKN150
NOTAMs
Click for the latest NOTAMs
NOTAMs are issued by the DoD/FAA and will open in a separate window not controlled by AirNav.

 

 
 

Would you like to see your business listed on this page?

 If your business provides an interesting product or service to pilots, flight crews, aircraft, or users of the Candlelight Heliport, you should consider listing it here.  To start the listing process, click on the button below
 
Add a business
 

Other Pages about Candlelight Heliport

Update a link
 
Copyright © AirNav, LLC. All rights reserved. Privacy Policy  Contact